createdAt,value
2023-04-10T00:00:04.134Z,61.87
2023-04-10T00:02:31.430Z,61.39
2023-04-10T00:04:59.123Z,61.35
2023-04-10T00:07:26.484Z,61.52
2023-04-10T00:09:53.628Z,61.06
2023-04-10T00:12:20.979Z,61.37
2023-04-10T00:14:47.874Z,61.21
2023-04-10T00:17:14.723Z,61.40
2023-04-10T00:19:41.551Z,61.34
2023-04-10T00:22:08.385Z,61.56
2023-04-10T00:24:35.322Z,61.38
2023-04-10T00:27:02.198Z,61.40
2023-04-10T00:29:29.085Z,61.49
2023-04-10T00:31:55.962Z,61.14
2023-04-10T00:34:22.790Z,60.98
2023-04-10T00:36:49.662Z,61.31
2023-04-10T00:39:16.525Z,61.31
2023-04-10T00:41:43.465Z,61.32
2023-04-10T00:44:10.400Z,61.55
2023-04-10T00:46:39.079Z,62.05
2023-04-10T00:49:06.437Z,61.97
2023-04-10T00:51:33.782Z,61.98
2023-04-10T00:54:02.274Z,62.01
2023-04-10T00:56:32.166Z,61.80
2023-04-10T00:58:59.091Z,61.97
2023-04-10T01:01:26.251Z,61.77
2023-04-10T01:03:54.556Z,62.09
2023-04-10T01:06:21.596Z,62.27
2023-04-10T01:09:31.949Z,62.22
2023-04-10T01:12:12.287Z,62.73
2023-04-10T01:15:04.089Z,62.88
2023-04-10T01:17:59.943Z,62.66
2023-04-10T01:20:31.969Z,62.57
2023-04-10T01:23:12.610Z,62.65
2023-04-10T01:25:51.015Z,62.88
2023-04-10T01:29:01.594Z,63.18
2023-04-10T01:32:11.874Z,63.24
2023-04-10T01:34:47.927Z,63.09
2023-04-10T01:37:24.702Z,63.29
2023-04-10T01:39:59.650Z,62.68
2023-04-10T01:42:32.933Z,62.21
2023-04-10T01:45:01.251Z,62.19
2023-04-10T01:47:28.828Z,62.14
2023-04-10T01:49:56.774Z,62.43
2023-04-10T01:52:24.893Z,62.67
2023-04-10T01:54:53.280Z,63.01
2023-04-10T01:57:20.427Z,63.10
2023-04-10T01:59:47.412Z,63.07
2023-04-10T02:02:14.323Z,63.16
2023-04-10T02:04:41.350Z,62.76
2023-04-10T02:07:23.964Z,62.95
2023-04-10T02:10:15.568Z,62.80
2023-04-10T02:12:53.542Z,62.88
2023-04-10T02:15:23.729Z,62.43
2023-04-10T02:17:52.289Z,62.71
2023-04-10T02:20:19.640Z,62.68
2023-04-10T02:22:47.225Z,62.66
2023-04-10T02:25:14.939Z,62.84
2023-04-10T02:27:42.381Z,62.78
2023-04-10T02:30:09.662Z,62.86
2023-04-10T02:32:36.934Z,63.02
2023-04-10T02:35:04.441Z,62.89
2023-04-10T02:37:31.764Z,63.15
2023-04-10T02:39:58.597Z,63.10
2023-04-10T02:42:25.432Z,62.89
2023-04-10T02:44:52.239Z,63.03
2023-04-10T02:47:19.145Z,62.93
2023-04-10T02:49:46.075Z,63.44
2023-04-10T02:52:13.002Z,63.76
2023-04-10T02:54:40.336Z,63.79
2023-04-10T02:57:07.332Z,64.18
2023-04-10T02:59:34.211Z,64.00
2023-04-10T03:02:01.162Z,63.94
2023-04-10T03:04:29.082Z,63.81
2023-04-10T03:06:56.105Z,63.88
2023-04-10T03:09:22.912Z,64.38
2023-04-10T03:11:49.750Z,64.60
2023-04-10T03:14:17.127Z,64.74
2023-04-10T03:16:44.233Z,65.38
2023-04-10T03:19:12.773Z,64.98
2023-04-10T03:21:39.695Z,64.83
2023-04-10T03:24:07.134Z,64.93
2023-04-10T03:26:33.932Z,64.87
2023-04-10T03:29:00.867Z,65.04
2023-04-10T03:31:28.079Z,64.86
2023-04-10T03:33:55.200Z,64.83
2023-04-10T03:36:22.233Z,64.78
2023-04-10T03:38:49.162Z,64.48
2023-04-10T03:41:15.985Z,64.72
2023-04-10T03:43:42.777Z,64.85
2023-04-10T03:46:09.644Z,64.92
2023-04-10T03:48:36.453Z,65.73
2023-04-10T03:51:03.531Z,66.27
2023-04-10T03:53:30.422Z,65.91
2023-04-10T03:55:57.350Z,65.78
2023-04-10T03:58:24.201Z,65.70
2023-04-10T04:00:51.566Z,66.01
2023-04-10T04:03:18.619Z,66.23
2023-04-10T04:05:45.820Z,65.99
2023-04-10T04:08:13.998Z,66.28
2023-04-10T04:10:40.917Z,66.10
2023-04-10T04:13:07.732Z,65.81
2023-04-10T04:15:34.635Z,66.39
2023-04-10T04:18:01.494Z,66.19
2023-04-10T04:20:28.586Z,65.82
2023-04-10T04:22:55.540Z,66.23
2023-04-10T04:25:22.448Z,66.00
2023-04-10T04:27:49.251Z,65.83
2023-04-10T04:30:16.254Z,65.55
2023-04-10T04:32:43.151Z,65.75
2023-04-10T04:35:10.747Z,65.61
2023-04-10T04:37:37.600Z,65.80
2023-04-10T04:40:04.964Z,65.59
2023-04-10T04:42:31.734Z,65.98
2023-04-10T04:44:58.545Z,66.07
2023-04-10T04:47:25.655Z,65.94
2023-04-10T04:49:52.562Z,66.18
2023-04-10T04:52:19.392Z,66.23
2023-04-10T04:54:46.195Z,66.20
2023-04-10T04:57:13.053Z,66.15
2023-04-10T04:59:39.850Z,65.94
2023-04-10T05:02:06.989Z,65.96
2023-04-10T05:04:33.930Z,65.80
2023-04-10T05:07:01.005Z,65.99
2023-04-10T05:09:27.795Z,65.96
2023-04-10T05:11:54.751Z,65.83
2023-04-10T05:14:22.253Z,65.58
2023-04-10T05:16:49.114Z,65.02
2023-04-10T05:19:16.228Z,64.93
2023-04-10T05:21:43.353Z,65.40
2023-04-10T05:24:10.415Z,64.89
2023-04-10T05:26:37.446Z,64.25
2023-04-10T05:29:04.815Z,63.76
2023-04-10T05:31:31.793Z,63.02
2023-04-10T05:33:58.709Z,62.71
2023-04-10T05:36:25.605Z,63.35
2023-04-10T05:38:52.892Z,62.31
2023-04-10T05:41:20.058Z,63.00
2023-04-10T05:43:46.879Z,62.25
2023-04-10T05:46:13.761Z,61.20
2023-04-10T05:48:40.875Z,61.16
2023-04-10T05:51:07.962Z,59.98
2023-04-10T05:53:35.132Z,60.84
2023-04-10T05:56:04.980Z,62.05
2023-04-10T05:58:31.865Z,61.60
2023-04-10T06:00:58.796Z,61.96
2023-04-10T06:03:27.705Z,61.84
2023-04-10T06:05:56.069Z,60.83
2023-04-10T06:08:22.949Z,60.58
2023-04-10T06:10:49.830Z,60.31
2023-04-10T06:13:16.712Z,59.94
2023-04-10T06:15:43.581Z,59.19
2023-04-10T06:18:10.472Z,59.34
2023-04-10T06:20:37.291Z,58.95
2023-04-10T06:23:04.142Z,57.43
2023-04-10T06:25:31.011Z,57.34
2023-04-10T06:27:58.102Z,56.75
2023-04-10T06:30:25.002Z,55.83
2023-04-10T06:32:51.861Z,56.82
2023-04-10T06:35:18.771Z,55.39
2023-04-10T06:37:45.940Z,55.26
2023-04-10T06:40:16.090Z,55.83
2023-04-10T06:42:43.242Z,55.40
2023-04-10T06:45:10.583Z,54.45
2023-04-10T06:47:37.634Z,54.59
2023-04-10T06:50:04.951Z,53.55
2023-04-10T06:52:32.700Z,54.35
2023-04-10T06:54:59.841Z,53.85
2023-04-10T06:57:26.707Z,53.04
2023-04-10T06:59:53.614Z,52.18
2023-04-10T07:02:20.862Z,51.05
2023-04-10T07:04:47.776Z,50.58
2023-04-10T07:07:15.862Z,50.16
2023-04-10T07:09:42.915Z,49.26
2023-04-10T07:12:09.740Z,48.43
2023-04-10T07:14:36.686Z,48.75
2023-04-10T07:17:03.850Z,48.14
2023-04-10T07:19:31.325Z,47.83
2023-04-10T07:21:58.208Z,48.02
2023-04-10T07:24:25.192Z,48.73
2023-04-10T07:26:52.097Z,48.34
2023-04-10T07:29:20.988Z,47.90
2023-04-10T07:31:48.048Z,48.30
2023-04-10T07:34:15.067Z,47.92
2023-04-10T07:36:41.891Z,47.56
2023-04-10T07:39:08.704Z,47.15
2023-04-10T07:41:35.881Z,47.73
2023-04-10T07:44:02.734Z,46.28
2023-04-10T07:46:29.581Z,46.50
2023-04-10T07:48:56.652Z,47.01
2023-04-10T07:51:23.952Z,46.26
2023-04-10T07:53:50.807Z,45.63
2023-04-10T07:56:19.504Z,46.00
2023-04-10T07:58:47.467Z,46.99
2023-04-10T08:01:15.721Z,46.88
2023-04-10T08:03:45.620Z,45.68
2023-04-10T08:06:12.899Z,45.85
2023-04-10T08:08:42.090Z,44.71
2023-04-10T08:11:29.783Z,45.99
2023-04-10T08:14:01.603Z,44.81
2023-04-10T08:16:36.198Z,44.89
2023-04-10T08:19:03.768Z,43.94
2023-04-10T08:21:32.191Z,43.70
2023-04-10T08:24:01.811Z,42.91
2023-04-10T08:26:29.395Z,44.17
2023-04-10T08:28:59.864Z,45.90
2023-04-10T08:31:29.032Z,44.77
2023-04-10T08:33:57.277Z,45.11
2023-04-10T08:36:24.684Z,44.11
2023-04-10T08:38:51.576Z,43.25
2023-04-10T08:41:19.960Z,43.04
2023-04-10T08:43:47.507Z,44.08
2023-04-10T08:46:15.123Z,43.71
2023-04-10T08:49:03.284Z,43.87
2023-04-10T08:51:39.982Z,43.85
2023-04-10T08:54:11.872Z,43.36
2023-04-10T08:56:41.757Z,43.95
2023-04-10T08:59:09.255Z,46.12
2023-04-10T09:01:36.439Z,44.84
2023-04-10T09:04:03.603Z,44.67
2023-04-10T09:06:31.493Z,43.11
2023-04-10T09:11:52.555Z,43.50
2023-04-10T09:14:36.460Z,41.77
2023-04-10T09:17:20.327Z,41.24
2023-04-10T09:19:52.730Z,41.36
2023-04-10T09:22:36.343Z,42.32
2023-04-10T09:25:04.724Z,41.96
2023-04-10T09:27:37.386Z,41.35
2023-04-10T09:30:06.478Z,41.20
2023-04-10T09:32:46.457Z,40.21
2023-04-10T09:35:16.718Z,40.40
2023-04-10T09:37:46.619Z,40.11
2023-04-10T09:40:25.149Z,40.75
2023-04-10T09:42:53.354Z,40.19
2023-04-10T09:45:20.730Z,39.09
2023-04-10T09:48:08.501Z,38.69
2023-04-10T09:50:40.826Z,38.47
2023-04-10T09:53:19.255Z,39.64
2023-04-10T09:55:48.055Z,39.29
2023-04-10T09:58:16.402Z,38.69
2023-04-10T10:00:49.240Z,38.46
2023-04-10T10:03:19.703Z,38.20
2023-04-10T10:05:52.456Z,37.82
2023-04-10T10:08:20.001Z,36.51
2023-04-10T10:10:55.926Z,37.30
2023-04-10T10:13:41.218Z,36.86
2023-04-10T10:16:33.743Z,37.03
2023-04-10T10:19:10.785Z,37.08
2023-04-10T10:21:39.077Z,36.39
2023-04-10T10:24:09.457Z,36.39
2023-04-10T10:26:40.074Z,36.85
2023-04-10T10:29:11.095Z,37.23
2023-04-10T10:31:38.825Z,36.38
2023-04-10T10:34:09.173Z,36.92
2023-04-10T10:36:37.289Z,36.22
2023-04-10T10:39:29.750Z,35.52
2023-04-10T10:42:10.832Z,36.11
2023-04-10T10:45:11.637Z,35.82
2023-04-10T10:47:54.379Z,35.52
2023-04-10T10:50:24.270Z,35.06
2023-04-10T10:52:54.029Z,35.44
2023-04-10T10:55:36.428Z,35.26
2023-04-10T10:58:07.749Z,33.90
2023-04-10T11:00:52.933Z,34.98
2023-04-10T11:03:19.815Z,34.39
2023-04-10T11:05:58.649Z,34.93
2023-04-10T11:08:42.426Z,34.01
2023-04-10T11:11:15.769Z,33.59
2023-04-10T11:13:57.587Z,34.03
2023-04-10T11:16:44.215Z,32.88
2023-04-10T11:19:19.027Z,32.97
2023-04-10T11:22:05.268Z,32.87
2023-04-10T11:24:57.477Z,32.90
2023-04-10T11:27:45.837Z,33.04
2023-04-10T11:30:48.307Z,32.71
2023-04-10T11:33:19.119Z,33.30
2023-04-10T11:35:47.029Z,33.22
2023-04-10T11:38:18.088Z,33.38
2023-04-10T11:41:04.343Z,33.85
2023-04-10T11:43:32.142Z,33.78
2023-04-10T11:46:04.669Z,33.37
2023-04-10T11:48:32.403Z,32.51
2023-04-10T11:51:01.696Z,31.06
2023-04-10T11:53:29.998Z,32.09
2023-04-10T11:55:56.921Z,32.27
2023-04-10T11:58:30.481Z,31.65
2023-04-10T12:00:58.780Z,30.62
2023-04-10T12:03:37.513Z,31.68
2023-04-10T12:06:10.362Z,31.33
2023-04-10T12:08:41.223Z,31.54
2023-04-10T12:11:10.383Z,31.30
2023-04-10T12:13:37.900Z,32.41
2023-04-10T12:16:08.231Z,31.08
2023-04-10T12:18:35.997Z,31.31
2023-04-10T12:21:05.536Z,30.23
2023-04-10T12:23:37.325Z,30.29
2023-04-10T12:26:14.554Z,30.16
2023-04-10T12:28:50.796Z,29.09
2023-04-10T12:31:17.882Z,27.85
2023-04-10T12:33:47.794Z,26.92
2023-04-10T12:36:32.154Z,27.26
2023-04-10T12:39:01.566Z,28.22
2023-04-10T12:41:37.261Z,26.85
2023-04-10T12:44:09.608Z,27.52
2023-04-10T12:46:36.728Z,27.56
2023-04-10T12:49:18.370Z,26.86
2023-04-10T12:51:50.530Z,25.99
2023-04-10T12:54:35.193Z,25.43
2023-04-10T12:57:04.213Z,24.79
2023-04-10T12:59:31.657Z,24.68
2023-04-10T13:01:58.804Z,25.21
2023-04-10T13:04:26.205Z,24.86
2023-04-10T13:06:53.356Z,25.80
2023-04-10T13:09:20.373Z,25.60
2023-04-10T13:11:48.488Z,24.79
2023-04-10T13:14:17.013Z,25.23
2023-04-10T13:16:44.090Z,24.22
2023-04-10T13:19:11.005Z,23.96
2023-04-10T13:21:37.838Z,23.42
2023-04-10T13:24:04.779Z,23.26
2023-04-10T13:26:31.626Z,22.90
2023-04-10T13:28:58.468Z,22.75
2023-04-10T13:31:25.517Z,22.33
2023-04-10T13:33:52.415Z,22.86
2023-04-10T13:36:19.350Z,22.33
2023-04-10T13:38:46.270Z,22.61
2023-04-10T13:41:13.118Z,22.58
2023-04-10T13:43:40.226Z,22.06
2023-04-10T13:46:07.379Z,21.97
2023-04-10T13:48:40.447Z,21.80
2023-04-10T13:51:08.297Z,22.15
2023-04-10T13:53:35.775Z,20.77
2023-04-10T13:56:02.600Z,20.87
2023-04-10T13:58:31.914Z,21.15
2023-04-10T14:00:59.337Z,21.23
2023-04-10T14:03:26.409Z,21.59
2023-04-10T14:05:54.349Z,21.59
2023-04-10T14:08:21.306Z,20.40
2023-04-10T14:10:51.502Z,19.73
2023-04-10T14:13:18.821Z,20.05
2023-04-10T14:15:46.027Z,19.02
2023-04-10T14:18:13.094Z,19.59
2023-04-10T14:20:42.350Z,19.55
2023-04-10T14:23:09.807Z,19.15
2023-04-10T14:25:36.710Z,18.80
2023-04-10T14:28:03.563Z,18.10
2023-04-10T14:30:32.664Z,18.17
2023-04-10T14:32:59.814Z,18.78
2023-04-10T14:35:26.875Z,18.53
2023-04-10T14:37:53.729Z,19.18
2023-04-10T14:40:20.821Z,19.27
2023-04-10T14:42:47.623Z,19.72
2023-04-10T14:45:14.546Z,19.63
2023-04-10T14:47:41.807Z,18.64
2023-04-10T14:50:09.109Z,18.72
2023-04-10T14:52:35.957Z,18.64
2023-04-10T14:55:02.863Z,20.04
2023-04-10T14:57:29.769Z,19.47
2023-04-10T14:59:56.834Z,18.73
2023-04-10T15:02:24.196Z,18.74
2023-04-10T15:04:51.201Z,18.38
2023-04-10T15:07:18.188Z,18.96
2023-04-10T15:09:46.239Z,18.24
2023-04-10T15:12:13.071Z,18.14
2023-04-10T15:14:39.953Z,17.31
2023-04-10T15:17:06.980Z,16.96
2023-04-10T15:19:33.846Z,17.30
2023-04-10T15:22:00.770Z,16.30
2023-04-10T15:24:29.129Z,16.32
2023-04-10T15:26:57.848Z,16.33
2023-04-10T15:29:24.711Z,17.50
2023-04-10T15:31:51.569Z,18.39
2023-04-10T15:34:19.036Z,19.86
2023-04-10T15:36:45.853Z,21.06
2023-04-10T15:39:12.787Z,21.80
2023-04-10T15:41:39.587Z,23.42
2023-04-10T15:44:06.432Z,24.89
2023-04-10T15:46:34.117Z,25.49
2023-04-10T15:49:01.407Z,25.35
2023-04-10T15:51:28.257Z,25.95
2023-04-10T15:53:55.291Z,27.26
2023-04-10T15:56:22.368Z,26.92
2023-04-10T15:58:49.210Z,26.96
2023-04-10T16:01:16.091Z,26.90
2023-04-10T16:03:43.187Z,27.33
2023-04-10T16:06:10.299Z,28.73
2023-04-10T16:08:37.115Z,28.64
2023-04-10T16:11:04.089Z,28.58
2023-04-10T16:13:30.970Z,29.56
2023-04-10T16:15:57.870Z,30.77
2023-04-10T16:18:24.851Z,31.57
2023-04-10T16:20:51.863Z,31.80
2023-04-10T16:23:19.825Z,32.01
2023-04-10T16:25:46.640Z,32.31
2023-04-10T16:28:13.565Z,31.74
2023-04-10T16:30:40.476Z,31.96
2023-04-10T16:33:07.360Z,32.13
2023-04-10T16:35:34.319Z,32.60
2023-04-10T16:38:01.783Z,32.50
2023-04-10T16:40:32.376Z,33.16
2023-04-10T16:43:02.796Z,33.04
2023-04-10T16:45:29.854Z,33.38
2023-04-10T16:47:56.813Z,33.43
2023-04-10T16:50:23.730Z,34.01
2023-04-10T16:52:50.616Z,34.32
2023-04-10T16:55:17.634Z,34.51
2023-04-10T16:57:44.457Z,34.54
2023-04-10T17:00:11.964Z,34.30
2023-04-10T17:02:39.570Z,35.16
2023-04-10T17:05:06.678Z,35.25
2023-04-10T17:07:34.409Z,35.38
2023-04-10T17:10:01.263Z,35.97
2023-04-10T17:12:28.177Z,36.63
2023-04-10T17:14:55.037Z,36.20
2023-04-10T17:17:22.002Z,36.31
2023-04-10T17:19:49.214Z,36.85
2023-04-10T17:22:16.335Z,37.17
2023-04-10T17:24:44.402Z,36.57
2023-04-10T17:27:12.145Z,37.08
2023-04-10T17:29:39.551Z,37.14
2023-04-10T17:32:08.685Z,37.61
2023-04-10T17:34:36.145Z,37.46
2023-04-10T17:37:03.109Z,37.17
2023-04-10T17:39:30.059Z,37.75
2023-04-10T17:41:57.192Z,37.67
2023-04-10T17:44:24.196Z,37.92
2023-04-10T17:46:51.114Z,37.78
2023-04-10T17:49:17.996Z,38.17
2023-04-10T17:51:44.888Z,37.83
2023-04-10T17:54:11.776Z,38.50
2023-04-10T17:56:38.722Z,38.53
2023-04-10T17:59:05.611Z,39.15
2023-04-10T18:01:32.524Z,38.83
2023-04-10T18:04:00.376Z,39.13
2023-04-10T18:06:27.561Z,38.48
2023-04-10T18:08:58.184Z,38.92
2023-04-10T18:11:25.284Z,38.13
2023-04-10T18:13:52.362Z,38.75
2023-04-10T18:16:19.281Z,38.66
2023-04-10T18:18:46.166Z,38.56
2023-04-10T18:21:13.698Z,38.91
2023-04-10T18:23:40.666Z,39.30
2023-04-10T18:26:07.773Z,39.13
2023-04-10T18:28:35.838Z,39.27
2023-04-10T18:31:02.778Z,39.73
2023-04-10T18:33:29.724Z,39.70
2023-04-10T18:35:59.268Z,39.36
2023-04-10T18:38:26.765Z,39.57
2023-04-10T18:40:57.772Z,39.65
2023-04-10T18:43:25.546Z,40.04
2023-04-10T18:45:52.544Z,40.01
2023-04-10T18:48:19.503Z,40.48
2023-04-10T18:50:46.360Z,40.66
2023-04-10T18:53:13.186Z,41.25
2023-04-10T18:55:39.974Z,40.90
2023-04-10T18:58:06.843Z,40.84
2023-04-10T19:00:34.247Z,41.48
2023-04-10T19:03:01.306Z,41.23
2023-04-10T19:05:32.622Z,41.78
2023-04-10T19:08:04.728Z,42.31
2023-04-10T19:10:32.674Z,42.55
2023-04-10T19:12:59.745Z,41.94
2023-04-10T19:15:27.450Z,42.57
2023-04-10T19:17:55.046Z,42.67
2023-04-10T19:20:50.892Z,42.96
2023-04-10T19:23:09.648Z,43.71
2023-04-10T19:25:36.502Z,43.89
2023-04-10T19:28:03.668Z,43.84
2023-04-10T19:30:30.639Z,43.93
2023-04-10T19:32:57.618Z,43.82
2023-04-10T19:35:24.856Z,44.48
2023-04-10T19:37:51.683Z,44.66
2023-04-10T19:40:19.422Z,44.90
2023-04-10T19:42:46.326Z,44.56
2023-04-10T19:45:14.943Z,44.82
2023-04-10T19:47:41.821Z,45.21
2023-04-10T19:50:09.076Z,45.04
2023-04-10T19:52:36.102Z,45.45
2023-04-10T19:55:02.988Z,45.00
2023-04-10T19:57:29.853Z,45.39
2023-04-10T19:59:56.772Z,45.38
2023-04-10T20:02:23.751Z,45.65
2023-04-10T20:04:50.903Z,45.28
2023-04-10T20:07:17.721Z,45.64
2023-04-10T20:09:44.612Z,45.61
2023-04-10T20:12:11.429Z,45.86
2023-04-10T20:14:38.510Z,45.79
2023-04-10T20:17:05.349Z,46.30
2023-04-10T20:19:32.262Z,46.50
2023-04-10T20:22:01.540Z,47.29
2023-04-10T20:24:29.141Z,46.60
2023-04-10T20:26:57.198Z,46.86
2023-04-10T20:29:23.999Z,46.93
2023-04-10T20:31:50.878Z,47.42
2023-04-10T20:34:17.693Z,47.16
2023-04-10T20:36:44.582Z,47.39
2023-04-10T20:39:11.397Z,47.86
2023-04-10T20:41:38.185Z,47.64
2023-04-10T20:44:05.017Z,47.90
2023-04-10T20:46:31.886Z,48.09
2023-04-10T20:48:59.245Z,47.79
2023-04-10T20:51:29.920Z,48.15
2023-04-10T20:53:56.767Z,47.92
2023-04-10T20:56:32.835Z,48.30
2023-04-10T20:59:03.609Z,48.45
2023-04-10T21:01:30.716Z,48.61
2023-04-10T21:03:58.686Z,48.93
2023-04-10T21:06:26.517Z,48.69
2023-04-10T21:08:53.644Z,48.88
2023-04-10T21:11:22.056Z,48.94
2023-04-10T21:13:49.313Z,49.08
2023-04-10T21:16:16.328Z,49.02
2023-04-10T21:18:43.243Z,49.47
2023-04-10T21:21:10.538Z,49.41
2023-04-10T21:23:37.341Z,50.14
2023-04-10T21:26:04.226Z,49.79
2023-04-10T21:28:31.087Z,50.00
2023-04-10T21:30:57.942Z,49.91
2023-04-10T21:33:24.816Z,50.39
2023-04-10T21:35:51.721Z,50.70
2023-04-10T21:38:18.531Z,51.03
2023-04-10T21:40:55.056Z,50.77
2023-04-10T21:43:22.345Z,50.97
2023-04-10T21:45:49.466Z,51.12
2023-04-10T21:48:16.468Z,51.39
2023-04-10T21:50:43.428Z,51.74
2023-04-10T21:53:10.371Z,51.96
2023-04-10T21:55:37.473Z,51.65
2023-04-10T21:58:04.836Z,51.90
2023-04-10T22:00:33.189Z,51.78
2023-04-10T22:03:00.363Z,52.01
2023-04-10T22:05:27.597Z,51.98
2023-04-10T22:07:54.975Z,52.40
2023-04-10T22:10:21.900Z,52.70
2023-04-10T22:12:49.133Z,52.93
2023-04-10T22:15:17.070Z,52.32
2023-04-10T22:17:43.989Z,52.28
2023-04-10T22:20:11.209Z,52.57
2023-04-10T22:22:38.061Z,52.46
2023-04-10T22:25:05.502Z,52.25
2023-04-10T22:27:33.404Z,52.43
2023-04-10T22:30:03.777Z,52.65
2023-04-10T22:32:32.122Z,52.65
2023-04-10T22:34:59.958Z,53.21
2023-04-10T22:37:27.595Z,53.53
2023-04-10T22:39:56.091Z,53.04
2023-04-10T22:42:23.663Z,53.13
2023-04-10T22:44:50.636Z,53.27
2023-04-10T22:47:17.954Z,53.40
2023-04-10T22:49:45.260Z,53.00
2023-04-10T22:52:16.169Z,52.77
2023-04-10T22:54:43.039Z,53.14
2023-04-10T22:57:10.351Z,53.75
2023-04-10T22:59:37.909Z,53.43
2023-04-10T23:02:04.921Z,52.90
2023-04-10T23:04:32.056Z,53.38
2023-04-10T23:06:59.230Z,53.16
2023-04-10T23:09:26.068Z,53.25
2023-04-10T23:11:52.897Z,52.79
2023-04-10T23:14:20.306Z,52.96
2023-04-10T23:16:47.168Z,52.99
2023-04-10T23:19:14.148Z,52.98
2023-04-10T23:21:41.115Z,52.94
2023-04-10T23:24:08.069Z,53.10
2023-04-10T23:26:34.970Z,53.25
2023-04-10T23:29:02.012Z,53.43
2023-04-10T23:31:28.851Z,53.78
2023-04-10T23:33:55.776Z,53.50
2023-04-10T23:36:22.578Z,53.30
2023-04-10T23:38:49.458Z,53.19
2023-04-10T23:41:16.314Z,53.37
2023-04-10T23:43:43.819Z,53.74
2023-04-10T23:46:10.648Z,53.87
2023-04-10T23:48:37.520Z,53.82
2023-04-10T23:51:08.659Z,53.83
2023-04-10T23:53:35.515Z,54.10
2023-04-10T23:56:02.326Z,53.83
2023-04-10T23:58:29.204Z,53.87
